Time;durP1;ratioP1;P1;durP2;ratioP2;P2;SDS_P1;SDS_P2;PMS_P1;PMS_P2;Temp;Humidity;BMP_temperature;BMP_pressure;BME280_temperature;BME280_humidity;BME280_pressure;Samples;Min_cycle;Max_cycle;Signal;HPM_P1;HPM_P2
2021/04/20 00:00:07;;;;;;;27.60;22.97;;;;;;;5.75;100.00;96043.97;1043485;28;20597;-49
2021/04/20 00:00:38;;;;;;;26.45;22.42;;;;;;;5.76;100.00;96044.78;1043475;28;20439;-55
2021/04/20 00:01:09;;;;;;;30.27;24.47;;;;;;;5.75;100.00;96043.16;1042801;28;20017;-52
2021/04/20 00:01:39;;;;;;;29.70;22.97;;;;;;;5.83;100.00;96041.34;1042164;28;20084;-51
2021/04/20 00:02:10;;;;;;;27.13;23.30;;;;;;;5.89;100.00;96039.88;1042547;28;20017;-52
2021/04/20 00:02:40;;;;;;;30.10;23.40;;;;;;;5.93;100.00;96041.13;1043014;28;20021;-53
2021/04/20 00:03:12;;;;;;;28.27;24.00;;;;;;;6.01;100.00;96048.16;1042687;28;20742;-53
2021/04/20 00:03:42;;;;;;;28.90;22.77;;;;;;;5.94;100.00;96048.00;1041581;28;20018;-52
2021/04/20 00:04:13;;;;;;;26.23;22.27;;;;;;;5.97;100.00;96045.09;1041584;28;20782;-51
2021/04/20 00:04:43;;;;;;;26.97;22.40;;;;;;;5.88;100.00;96040.84;1043299;28;20009;-49
2021/04/20 00:05:15;;;;;;;27.67;23.07;;;;;;;5.91;100.00;96042.31;1043303;28;20108;-53
2021/04/20 00:05:45;;;;;;;29.05;23.63;;;;;;;5.95;100.00;96044.41;1042291;28;20036;-51
2021/04/20 00:06:16;;;;;;;29.10;23.73;;;;;;;5.92;100.00;96044.75;1044090;28;20435;-53
2021/04/20 00:06:46;;;;;;;26.87;22.40;;;;;;;5.94;100.00;96044.59;1037793;28;20041;-51
2021/04/20 00:07:17;;;;;;;27.93;23.20;;;;;;;5.86;100.00;96045.41;1037442;28;20038;-54
2021/04/20 00:07:47;;;;;;;28.43;22.93;;;;;;;5.82;100.00;96041.50;1038431;28;20021;-50
2021/04/20 00:08:18;;;;;;;29.83;22.87;;;;;;;5.82;100.00;96041.50;1043435;28;20356;-53
2021/04/20 00:08:48;;;;;;;28.87;23.33;;;;;;;5.82;100.00;96042.31;1042371;28;20013;-52
2021/04/20 00:09:19;;;;;;;24.37;20.87;;;;;;;5.89;100.00;96045.09;1043631;28;20020;-51
2021/04/20 00:09:49;;;;;;;29.10;23.03;;;;;;;5.93;100.00;96046.38;1044443;28;20017;-49
2021/04/20 00:10:20;;;;;;;28.13;22.33;;;;;;;5.93;100.00;96041.13;1044377;28;20029;-50
2021/04/20 00:10:51;;;;;;;29.02;23.05;;;;;;;5.95;100.00;96047.03;1044458;28;20093;-53
2021/04/20 00:11:21;;;;;;;28.20;22.43;;;;;;;5.93;100.00;96045.56;1043577;28;20082;-53
2021/04/20 00:11:52;;;;;;;25.70;20.63;;;;;;;5.97;100.00;96047.69;1043008;28;20032;-50
2021/04/20 00:12:22;;;;;;;30.50;22.73;;;;;;;6.03;100.00;96041.81;1041871;28;20017;-52
2021/04/20 00:12:53;;;;;;;31.20;24.10;;;;;;;6.05;100.00;96050.28;1042034;28;20096;-53
2021/04/20 00:13:23;;;;;;;27.53;22.97;;;;;;;6.04;100.00;96042.59;1043249;28;20023;-51
2021/04/20 00:13:53;;;;;;;27.57;22.73;;;;;;;6.04;100.00;96048.66;1043087;28;20427;-51
2021/04/20 00:14:24;;;;;;;28.20;21.90;;;;;;;6.06;100.00;96040.66;1041782;28;20087;-52
2021/04/20 00:14:54;;;;;;;27.20;22.83;;;;;;;6.07;100.00;96042.25;1041756;28;20017;-52
2021/04/20 00:15:31;;;;;;;27.37;22.27;;;;;;;6.06;100.00;96035.44;1042701;28;20378;-52
2021/04/20 00:16:01;;;;;;;25.10;21.38;;;;;;;6.08;100.00;96038.69;1040205;28;20105;-51
2021/04/20 00:16:31;;;;;;;32.53;23.97;;;;;;;6.09;100.00;96045.53;1040455;28;20421;-51
2021/04/20 00:17:04;;;;;;;29.60;22.70;;;;;;;6.15;100.00;96034.41;1040526;28;20021;-48
2021/04/20 00:17:34;;;;;;;28.60;21.95;;;;;;;6.18;100.00;96039.31;1040473;28;20461;-53
2021/04/20 00:18:06;;;;;;;27.83;23.07;;;;;;;6.11;100.00;96042.75;1040520;28;20030;-51
2021/04/20 00:18:36;;;;;;;27.58;22.92;;;;;;;6.06;100.00;96045.88;1040542;28;20053;-52
2021/04/20 00:19:07;;;;;;;25.90;21.60;;;;;;;6.08;100.00;96043.09;1036965;28;20053;-53
2021/04/20 00:19:37;;;;;;;26.93;21.57;;;;;;;6.07;100.00;96036.22;1040638;28;20021;-52
2021/04/20 00:20:10;;;;;;;29.83;23.30;;;;;;;6.02;100.00;96045.38;1040424;28;20104;-50
2021/04/20 00:20:40;;;;;;;27.63;22.75;;;;;;;6.07;100.00;96036.22;1040523;28;20025;-52
2021/04/20 00:21:11;;;;;;;30.37;22.47;;;;;;;6.08;100.00;96037.88;1040786;28;20166;-50
2021/04/20 00:21:41;;;;;;;30.77;22.83;;;;;;;6.10;100.00;96036.69;1040915;28;20104;-53
2021/04/20 00:22:12;;;;;;;28.87;23.00;;;;;;;6.13;100.00;96038.16;1040370;28;20025;-50
2021/04/20 00:22:42;;;;;;;26.57;22.33;;;;;;;6.12;100.00;96034.75;1040450;28;20479;-52
2021/04/20 00:23:13;;;;;;;28.07;23.27;;;;;;;6.14;100.00;96038.00;1040553;28;20490;-51
2021/04/20 00:23:43;;;;;;;28.10;23.17;;;;;;;6.11;100.00;96037.53;1040578;28;20486;-49
2021/04/20 00:24:14;;;;;;;29.83;24.23;;;;;;;6.17;100.00;96042.88;1040213;28;20049;-52
2021/04/20 00:24:44;;;;;;;27.60;23.33;;;;;;;6.17;100.00;96037.66;1040329;28;20021;-48
2021/04/20 00:25:15;;;;;;;28.57;23.40;;;;;;;6.20;100.00;96033.91;1040453;28;20025;-52
2021/04/20 00:25:46;;;;;;;26.30;22.50;;;;;;;6.23;100.00;96036.97;1040356;28;20104;-51
2021/04/20 00:26:16;;;;;;;27.50;22.87;;;;;;;6.23;100.00;96038.78;1040525;28;20105;-51
2021/04/20 00:26:47;;;;;;;26.57;22.83;;;;;;;6.28;100.00;96036.47;1040865;28;20025;-49
2021/04/20 00:27:17;;;;;;;29.47;23.43;;;;;;;6.20;100.00;96033.91;1040851;28;20151;-52
2021/04/20 00:27:48;;;;;;;28.90;23.83;;;;;;;6.17;100.00;96034.25;1040715;28;20363;-52
2021/04/20 00:28:25;;;;;;;28.10;22.67;;;;;;;6.20;100.00;96039.94;1040798;28;20431;-51
2021/04/20 00:28:56;;;;;;;28.77;23.45;;;;;;;6.20;100.00;96032.09;1040722;28;20022;-50
2021/04/20 00:29:27;;;;;;;28.67;23.47;;;;;;;6.18;100.00;96038.47;1040663;28;20017;-52
2021/04/20 00:29:57;;;;;;;29.27;23.15;;;;;;;6.19;100.00;96029.66;1040723;28;20085;-50
2021/04/20 00:30:28;;;;;;;30.00;23.30;;;;;;;6.18;100.00;96022.78;1040735;28;20018;-51
2021/04/20 00:30:58;;;;;;;27.77;23.57;;;;;;;6.21;100.00;96025.09;1040598;28;20087;-50
2021/04/20 00:31:29;;;;;;;28.03;23.97;;;;;;;6.21;100.00;96023.28;1040668;28;20017;-49
2021/04/20 00:31:59;;;;;;;28.03;22.97;;;;;;;6.21;100.00;96028.50;1040782;28;20017;-49
2021/04/20 00:32:30;;;;;;;27.40;23.47;;;;;;;6.20;100.00;96031.28;1040714;28;20055;-53
2021/04/20 00:33:00;;;;;;;27.97;24.00;;;;;;;6.20;100.00;96029.47;1040677;28;20091;-49
2021/04/20 00:33:31;;;;;;;28.57;23.73;;;;;;;6.17;100.00;96026.41;1040743;28;20013;-50
2021/04/20 00:34:01;;;;;;;27.10;23.33;;;;;;;6.17;100.00;96024.59;1040645;28;20076;-51
2021/04/20 00:34:32;;;;;;;27.27;23.60;;;;;;;6.17;100.00;96023.78;1040618;28;20036;-48
2021/04/20 00:35:03;;;;;;;31.93;24.37;;;;;;;6.13;100.00;96031.13;1040760;28;20045;-53
2021/04/20 00:35:33;;;;;;;26.80;22.63;;;;;;;6.12;100.00;96026.91;1040717;28;20503;-49
2021/04/20 00:36:04;;;;;;;27.43;23.40;;;;;;;6.18;100.00;96028.00;1040546;28;20734;-51
2021/04/20 00:36:34;;;;;;;29.40;25.08;;;;;;;6.21;100.00;96025.09;1040786;28;20021;-51
2021/04/20 00:37:05;;;;;;;30.27;23.97;;;;;;;6.15;100.00;96023.94;1040680;28;20029;-51
2021/04/20 00:37:35;;;;;;;29.03;23.37;;;;;;;6.17;100.00;96031.63;1040668;28;20013;-52
2021/04/20 00:38:06;;;;;;;27.90;22.63;;;;;;;6.18;100.00;96030.63;1040697;28;20021;-53
2021/04/20 00:38:37;;;;;;;28.70;24.03;;;;;;;6.26;100.00;96025.38;1040668;28;20010;-50
2021/04/20 00:39:07;;;;;;;27.83;23.23;;;;;;;6.25;100.00;96031.59;1040721;28;20447;-51
2021/04/20 00:39:38;;;;;;;27.90;24.30;;;;;;;6.23;100.00;96025.72;1040307;28;20042;-52
2021/04/20 00:40:10;;;;;;;30.70;25.20;;;;;;;6.23;100.00;96028.34;1036161;28;20049;-50
2021/04/20 00:40:40;;;;;;;28.42;24.77;;;;;;;6.22;100.00;96024.06;1036156;28;20018;-52
2021/04/20 00:41:12;;;;;;;31.40;25.47;;;;;;;6.16;100.00;96024.75;1036560;28;20092;-50
2021/04/20 00:41:42;;;;;;;31.48;25.33;;;;;;;6.05;100.00;96023.34;1040240;28;20097;-49
2021/04/20 00:42:13;;;;;;;29.27;24.77;;;;;;;5.99;100.00;96029.25;1040639;28;20084;-52
2021/04/20 00:42:50;;;;;;;28.67;24.93;;;;;;;6.00;100.00;96020.41;1040652;28;20029;-50
2021/04/20 00:43:32;;;;;;;29.75;24.65;;;;;;;6.01;100.00;96022.03;1040331;28;20040;-49
2021/04/20 00:44:03;;;;;;;31.58;24.85;;;;;;;5.99;100.00;96030.03;1036207;28;20425;-49
2021/04/20 00:44:33;;;;;;;29.00;24.40;;;;;;;6.04;100.00;96024.31;1036016;28;20026;-49
2021/04/20 00:45:04;;;;;;;31.53;24.77;;;;;;;6.08;100.00;96024.81;1037802;28;20013;-51
2021/04/20 00:45:36;;;;;;;27.42;24.35;;;;;;;6.14;100.00;96022.31;1040388;28;20021;-50
2021/04/20 00:46:10;;;;;;;30.90;25.13;;;;;;;6.12;100.00;96023.47;1040524;28;20032;-51
2021/04/20 00:46:41;;;;;;;31.45;25.70;;;;;;;6.05;100.00;96021.53;1040615;28;20372;-50
2021/04/20 00:47:12;;;;;;;29.73;23.92;;;;;;;6.08;100.00;96017.75;1040634;28;20018;-50
2021/04/20 00:47:42;;;;;;;32.90;24.67;;;;;;;6.12;100.00;96016.44;1040673;28;20026;-50
2021/04/20 00:48:13;;;;;;;30.70;24.77;;;;;;;6.12;100.00;96020.84;1040596;28;20545;-49
2021/04/20 00:48:44;;;;;;;31.83;24.07;;;;;;;6.05;100.00;96013.69;1040676;28;20060;-51
2021/04/20 00:49:14;;;;;;;30.10;24.42;;;;;;;6.10;100.00;96018.41;1040694;28;20407;-49
2021/04/20 00:49:45;;;;;;;29.97;24.23;;;;;;;6.14;100.00;96022.31;1040491;28;20105;-52
2021/04/20 00:50:16;;;;;;;29.87;24.83;;;;;;;6.14;100.00;96017.09;1040668;28;20029;-52
2021/04/20 00:50:47;;;;;;;29.92;24.83;;;;;;;6.15;100.00;96021.34;1040081;28;20475;-50
2021/04/20 00:51:18;;;;;;;30.57;25.07;;;;;;;6.18;100.00;96021.00;1040315;28;20024;-50
2021/04/20 00:52:00;;;;;;;32.67;25.80;;;;;;;6.18;100.00;96020.16;1040257;28;20052;-49
2021/04/20 00:52:30;;;;;;;28.30;23.67;;;;;;;6.21;100.00;96015.44;1039715;28;20099;-51
2021/04/20 00:53:01;;;;;;;29.03;24.10;;;;;;;6.22;100.00;96019.69;1040629;28;20095;-50
2021/04/20 00:53:32;;;;;;;29.33;24.87;;;;;;;6.21;100.00;96027.69;1040280;28;20029;-50
2021/04/20 00:54:02;;;;;;;28.57;23.77;;;;;;;6.20;100.00;96021.63;1040395;28;20017;-49
2021/04/20 00:54:33;;;;;;;28.93;23.77;;;;;;;6.10;100.00;96022.81;1040158;28;20508;-50
2021/04/20 00:55:04;;;;;;;27.93;24.90;;;;;;;6.07;100.00;96023.16;1040308;28;20021;-50
2021/04/20 00:55:35;;;;;;;30.55;24.17;;;;;;;6.03;100.00;96014.84;1040763;28;20029;-53
2021/04/20 00:56:06;;;;;;;28.23;24.38;;;;;;;6.02;100.00;96023.66;1036126;28;20022;-49
2021/04/20 00:56:36;;;;;;;29.83;23.97;;;;;;;6.02;100.00;96021.88;1036205;28;20051;-50
2021/04/20 00:57:07;;;;;;;33.53;26.07;;;;;;;6.02;100.00;96021.06;1036298;28;20026;-49
2021/04/20 00:57:38;;;;;;;26.10;23.23;;;;;;;6.01;100.00;96032.50;1036413;28;20024;-50
2021/04/20 00:58:08;;;;;;;29.23;24.37;;;;;;;6.03;100.00;96026.13;1040741;28;20025;-50
2021/04/20 00:58:38;;;;;;;29.03;24.77;;;;;;;5.99;100.00;96024.81;1040750;28;20117;-49
2021/04/20 00:59:09;;;;;;;32.07;25.83;;;;;;;5.96;100.00;96025.13;1040426;28;20455;-50
2021/04/20 00:59:39;;;;;;;29.37;25.47;;;;;;;6.03;100.00;96020.88;1040503;28;20029;-49
2021/04/20 01:00:15;;;;;;;28.93;24.40;;;;;;;5.96;100.00;96029.53;1040374;28;20167;-49
2021/04/20 01:00:45;;;;;;;34.45;26.20;;;;;;;5.96;100.00;96032.97;1040341;28;20025;-53
2021/04/20 01:01:16;;;;;;;32.13;25.20;;;;;;;5.98;100.00;96023.22;1040692;28;20072;-52
2021/04/20 01:01:47;;;;;;;32.03;25.27;;;;;;;5.90;100.00;96027.59;1040297;28;20021;-52
2021/04/20 01:02:17;;;;;;;30.30;24.23;;;;;;;5.95;100.00;96022.69;1040296;28;20024;-50
2021/04/20 01:02:48;;;;;;;29.00;24.73;;;;;;;5.95;100.00;96020.91;1040422;28;20017;-50
2021/04/20 01:03:18;;;;;;;27.83;23.90;;;;;;;5.98;100.00;96017.16;1036372;28;20503;-50
2021/04/20 01:03:49;;;;;;;30.10;24.70;;;;;;;5.87;100.00;96026.94;1040307;28;20026;-49
2021/04/20 01:04:19;;;;;;;28.70;24.47;;;;;;;5.98;100.00;96023.22;1040077;28;20537;-51
2021/04/20 01:04:50;;;;;;;28.23;23.30;;;;;;;5.85;100.00;96020.28;1040249;28;20033;-50
2021/04/20 01:05:22;;;;;;;30.73;25.33;;;;;;;5.89;100.00;96018.97;1040522;28;20468;-50
2021/04/20 01:05:53;;;;;;;32.08;25.80;;;;;;;5.98;100.00;96014.53;1040511;28;20022;-50
2021/04/20 01:06:23;;;;;;;32.23;26.47;;;;;;;5.85;100.00;96020.28;1036176;28;20045;-49
2021/04/20 01:06:54;;;;;;;29.67;25.00;;;;;;;5.79;100.00;96018.34;1036134;28;20484;-50
2021/04/20 01:07:24;;;;;;;33.10;26.77;;;;;;;5.81;100.00;96016.34;1036130;28;20060;-49
2021/04/20 01:07:59;;;;;;;28.97;24.77;;;;;;;5.81;100.00;96016.34;1036327;28;20445;-50
2021/04/20 01:08:30;;;;;;;28.52;25.08;;;;;;;5.79;100.00;96015.72;1040233;28;20029;-50
2021/04/20 01:09:00;;;;;;;33.17;25.27;;;;;;;5.84;100.00;96005.56;1037122;28;20030;-53
2021/04/20 01:09:31;;;;;;;34.67;25.33;;;;;;;5.89;100.00;96011.13;1040586;28;20036;-52
2021/04/20 01:10:03;;;;;;;29.33;25.10;;;;;;;5.87;100.00;96016.50;1036303;28;20392;-51
2021/04/20 01:10:43;;;;;;;32.00;25.42;;;;;;;5.77;100.00;96015.88;1036414;28;20090;-52
2021/04/20 01:11:13;;;;;;;28.60;24.63;;;;;;;5.78;100.00;96016.69;1027792;28;20094;-52
2021/04/20 01:11:44;;;;;;;30.63;25.07;;;;;;;5.78;100.00;96014.88;1026008;28;20406;-52
2021/04/20 01:12:14;;;;;;;32.20;24.77;;;;;;;5.88;100.00;96007.69;1024403;29;20019;-51
2021/04/20 01:12:45;;;;;;;31.53;25.93;;;;;;;5.82;100.00;96013.56;1024481;28;20199;-52
2021/04/20 01:13:15;;;;;;;30.67;25.47;;;;;;;5.86;100.00;96016.66;1024573;28;20023;-52
2021/04/20 01:13:46;;;;;;;31.43;24.93;;;;;;;5.90;100.00;96010.13;1028553;28;20023;-49
2021/04/20 01:14:17;;;;;;;29.37;25.43;;;;;;;5.90;100.00;96010.13;1036321;28;20021;-50
2021/04/20 01:14:47;;;;;;;30.93;25.00;;;;;;;5.88;100.00;96006.88;1036459;28;20022;-50
2021/04/20 01:15:18;;;;;;;31.80;25.83;;;;;;;5.87;100.00;96016.50;1036557;28;20028;-51
2021/04/20 01:15:50;;;;;;;33.77;26.37;;;;;;;5.88;100.00;96012.91;1036331;28;20049;-53
2021/04/20 01:16:21;;;;;;;31.10;24.63;;;;;;;5.93;100.00;96006.38;1028481;28;20019;-50
2021/04/20 01:16:51;;;;;;;30.75;25.02;;;;;;;5.91;100.00;96014.38;1028901;28;20031;-51
2021/04/20 01:17:28;;;;;;;28.63;25.13;;;;;;;5.97;100.00;96015.53;1028368;28;20027;-52
2021/04/20 01:18:09;;;;;;;31.80;25.85;;;;;;;5.99;100.00;96006.53;1030336;28;20102;-52
2021/04/20 01:18:39;;;;;;;30.65;26.05;;;;;;;5.96;100.00;96014.66;1034666;28;20022;-52
2021/04/20 01:19:13;;;;;;;32.30;25.70;;;;;;;5.93;100.00;96014.19;1034694;28;20307;-52
2021/04/20 01:19:43;;;;;;;32.10;26.20;;;;;;;5.94;100.00;96006.19;1036190;28;20113;-53
2021/04/20 01:20:15;;;;;;;33.10;26.83;;;;;;;6.01;100.00;96009.81;1036569;28;20026;-52
2021/04/20 01:20:51;;;;;;;29.10;24.30;;;;;;;6.00;100.00;96015.19;1040029;28;20022;-52
2021/04/20 01:21:21;;;;;;;30.10;24.15;;;;;;;5.94;100.00;96016.66;1040757;28;20024;-51
2021/04/20 01:21:52;;;;;;;33.37;26.87;;;;;;;5.95;100.00;96010.44;1040482;28;20033;-50
2021/04/20 01:22:23;;;;;;;31.77;26.57;;;;;;;5.86;100.00;96014.88;1040326;28;20022;-51
2021/04/20 01:22:53;;;;;;;32.33;26.00;;;;;;;5.85;100.00;96021.06;1032520;28;20026;-50
2021/04/20 01:23:46;;;;;;;32.17;26.07;;;;;;;5.84;100.00;96011.59;1028449;28;20023;-52
2021/04/20 01:24:24;;;;;;;33.33;27.55;;;;;;;5.73;100.00;96014.59;1032002;28;20026;-49
2021/04/20 01:24:55;;;;;;;32.97;26.63;;;;;;;5.77;100.00;96005.44;1032145;28;20099;-49
2021/04/20 01:25:25;;;;;;;31.83;25.57;;;;;;;5.78;100.00;96017.50;1032377;28;20450;-52
2021/04/20 01:25:56;;;;;;;31.07;25.53;;;;;;;5.80;100.00;96015.56;1028240;28;20026;-49
2021/04/20 01:26:33;;;;;;;30.77;25.50;;;;;;;5.86;100.00;96019.28;1025166;28;20020;-49
2021/04/20 01:27:04;;;;;;;34.80;26.98;;;;;;;5.95;100.00;96010.44;1033132;28;20035;-51
2021/04/20 01:27:35;;;;;;;30.30;26.07;;;;;;;5.81;100.00;96013.75;1032207;28;20031;-51
2021/04/20 01:28:05;;;;;;;34.67;26.80;;;;;;;5.80;100.00;96012.94;1033398;28;20030;-51
2021/04/20 01:28:36;;;;;;;35.27;26.63;;;;;;;5.77;100.00;96018.50;1032266;28;20110;-52
2021/04/20 01:29:06;;;;;;;32.10;27.30;;;;;;;5.73;100.00;96013.78;1028604;28;20023;-53
2021/04/20 01:29:37;;;;;;;31.73;27.07;;;;;;;5.74;100.00;96010.16;1036173;28;20053;-52
2021/04/20 01:30:09;;;;;;;33.53;27.03;;;;;;;5.71;100.00;96013.94;1032430;28;20517;-50
2021/04/20 01:30:39;;;;;;;33.85;28.02;;;;;;;5.70;100.00;96014.91;1032426;28;20084;-52
2021/04/20 01:31:11;;;;;;;32.43;27.23;;;;;;;5.66;100.00;96009.22;1032113;28;20452;-49
2021/04/20 01:31:44;;;;;;;36.08;29.20;;;;;;;5.67;100.00;96010.03;1033185;28;20103;-50
2021/04/20 01:32:14;;;;;;;35.97;28.02;;;;;;;5.68;100.00;96012.47;1032241;28;20018;-50
2021/04/20 01:32:45;;;;;;;33.23;27.30;;;;;;;5.79;100.00;96013.91;1032795;28;20046;-48
2021/04/20 01:33:15;;;;;;;31.70;26.67;;;;;;;5.86;100.00;96016.66;1032135;28;20052;-50
2021/04/20 01:33:46;;;;;;;33.87;28.53;;;;;;;5.88;100.00;96006.88;1032432;28;20025;-49
2021/04/20 01:34:17;;;;;;;32.63;27.23;;;;;;;5.86;100.00;96014.03;1040209;28;20033;-50
2021/04/20 01:34:47;;;;;;;35.47;29.47;;;;;;;5.83;100.00;96017.00;1036378;28;20025;-49
2021/04/20 01:35:18;;;;;;;33.07;27.47;;;;;;;5.85;100.00;96012.44;1032213;28;20037;-50
2021/04/20 01:35:48;;;;;;;34.00;27.40;;;;;;;5.87;100.00;96016.50;1032093;28;20025;-50
2021/04/20 01:36:19;;;;;;;37.63;28.63;;;;;;;5.80;100.00;96012.94;1028216;28;20085;-49
2021/04/20 01:36:50;;;;;;;39.03;28.98;;;;;;;5.76;100.00;96014.25;1032418;28;20483;-49
2021/04/20 01:37:21;;;;;;;33.87;27.83;;;;;;;5.80;100.00;96019.94;1032049;28;20062;-50
2021/04/20 01:37:51;;;;;;;35.50;29.80;;;;;;;5.81;100.00;96018.97;1028733;28;20493;-50
2021/04/20 01:38:22;;;;;;;35.40;28.57;;;;;;;5.80;100.00;96017.31;1036095;28;20065;-52
2021/04/20 01:38:53;;;;;;;34.77;28.70;;;;;;;5.81;100.00;96016.34;1036374;28;20113;-49
2021/04/20 01:39:23;;;;;;;33.05;27.13;;;;;;;5.91;100.00;96010.94;1036320;28;20040;-49
2021/04/20 01:39:54;;;;;;;34.03;27.40;;;;;;;5.86;100.00;96014.88;1040156;28;20498;-50
2021/04/20 01:40:24;;;;;;;35.67;27.77;;;;;;;5.85;100.00;96012.44;1040298;28;20025;-49
2021/04/20 01:40:55;;;;;;;36.47;28.33;;;;;;;5.90;100.00;96015.34;1040503;28;20116;-48
2021/04/20 01:41:26;;;;;;;33.83;28.23;;;;;;;5.83;100.00;96019.59;1040175;28;20025;-48
2021/04/20 01:41:56;;;;;;;35.00;29.23;;;;;;;5.80;100.00;96014.72;1040525;28;20017;-49
2021/04/20 01:42:27;;;;;;;32.43;27.97;;;;;;;5.84;100.00;96011.59;1035962;28;20096;-50
2021/04/20 01:42:58;;;;;;;31.70;27.47;;;;;;;5.85;100.00;96015.84;1032216;28;20070;-51
2021/04/20 01:43:29;;;;;;;36.70;28.73;;;;;;;5.81;100.00;96016.34;1032025;28;20042;-52
2021/04/20 01:43:59;;;;;;;32.93;26.90;;;;;;;5.91;100.00;96021.41;1028266;28;20040;-49
2021/04/20 01:44:30;;;;;;;32.90;28.03;;;;;;;5.82;100.00;96016.19;1032055;28;20067;-50
2021/04/20 01:45:04;;;;;;;31.53;27.67;;;;;;;5.86;100.00;96019.28;1032110;28;20018;-50
2021/04/20 01:45:35;;;;;;;35.03;28.90;;;;;;;5.90;100.00;96015.34;1033450;28;20421;-49
2021/04/20 01:46:06;;;;;;;35.30;27.87;;;;;;;5.95;100.00;96014.84;1036092;28;20018;-51
2021/04/20 01:46:36;;;;;;;35.85;28.60;;;;;;;5.96;100.00;96013.88;1032662;28;20022;-51
2021/04/20 01:47:07;;;;;;;35.87;29.47;;;;;;;5.98;100.00;96015.38;1036140;28;20100;-52
2021/04/20 01:47:38;;;;;;;33.75;28.58;;;;;;;5.99;100.00;96016.16;1032237;28;20093;-49
2021/04/20 01:48:11;;;;;;;33.87;28.87;;;;;;;6.01;100.00;96015.03;1028366;28;20089;-49
2021/04/20 01:48:42;;;;;;;33.55;28.65;;;;;;;6.02;100.00;96016.63;1028005;28;20010;-53
2021/04/20 01:49:13;;;;;;;35.42;29.25;;;;;;;5.99;100.00;96021.41;1028541;28;20469;-50
2021/04/20 01:49:43;;;;;;;34.50;28.77;;;;;;;5.99;100.00;96024.00;1033202;28;20080;-49
2021/04/20 01:50:14;;;;;;;34.27;28.20;;;;;;;6.01;100.00;96017.63;1040097;28;20072;-50
2021/04/20 01:50:44;;;;;;;34.57;28.20;;;;;;;5.87;100.00;96026.94;1040465;28;20043;-50
2021/04/20 01:51:15;;;;;;;38.07;28.87;;;;;;;5.76;100.00;96014.25;1040604;28;20022;-51
2021/04/20 01:51:46;;;;;;;34.92;29.27;;;;;;;5.78;100.00;96016.69;1040556;28;20022;-49
2021/04/20 01:52:16;;;;;;;35.60;29.43;;;;;;;5.77;100.00;96018.50;1040058;28;20030;-52
2021/04/20 01:52:47;;;;;;;36.77;29.10;;;;;;;5.81;100.00;96024.19;1031947;28;20560;-49
2021/04/20 01:53:17;;;;;;;36.80;29.77;;;;;;;5.83;100.00;96020.44;1028116;28;20031;-49
2021/04/20 01:53:48;;;;;;;34.40;29.23;;;;;;;5.85;100.00;96028.91;1024011;28;20031;-49
2021/04/20 01:54:19;;;;;;;39.53;29.33;;;;;;;5.86;100.00;96019.28;1027912;28;20034;-49
2021/04/20 01:54:49;;;;;;;35.30;29.03;;;;;;;5.93;100.00;96024.66;1032142;28;20045;-50
2021/04/20 01:55:19;;;;;;;37.93;29.77;;;;;;;5.93;100.00;96025.47;1032196;28;20101;-53
2021/04/20 01:55:59;;;;;;;35.23;28.67;;;;;;;5.99;100.00;96018.78;1036351;28;20030;-53
2021/04/20 01:56:30;;;;;;;34.28;27.58;;;;;;;5.96;100.00;96017.28;1040615;28;20025;-49
2021/04/20 01:57:00;;;;;;;35.87;28.23;;;;;;;5.96;100.00;96017.28;1033509;28;20022;-53
2021/04/20 01:57:31;;;;;;;32.33;28.20;;;;;;;5.94;100.00;96021.88;1031905;28;20105;-49
2021/04/20 01:58:01;;;;;;;36.37;30.17;;;;;;;5.87;100.00;96019.09;1028492;28;20023;-51
2021/04/20 01:58:33;;;;;;;33.30;28.13;;;;;;;5.95;100.00;96018.28;1028227;28;20524;-51
2021/04/20 01:59:04;;;;;;;34.53;28.75;;;;;;;5.94;100.00;96016.66;1032073;28;20023;-52
2021/04/20 01:59:34;;;;;;;36.40;29.73;;;;;;;5.93;100.00;96017.63;1028487;28;20085;-52
2021/04/20 02:00:08;;;;;;;35.53;28.43;;;;;;;5.95;100.00;96023.50;1032196;28;20476;-49
2021/04/20 02:00:39;;;;;;;34.90;29.73;;;;;;;5.99;100.00;96021.41;1032841;28;20436;-50
2021/04/20 02:01:11;;;;;;;36.70;29.33;;;;;;;5.99;100.00;96019.59;1033286;28;20521;-49
2021/04/20 02:01:41;;;;;;;38.78;30.45;;;;;;;6.00;100.00;96018.63;1040367;28;20021;-50
2021/04/20 02:02:12;;;;;;;36.47;29.60;;;;;;;5.99;100.00;96016.97;1036313;28;20018;-51
2021/04/20 02:02:42;;;;;;;34.90;28.60;;;;;;;5.97;100.00;96018.16;1032335;28;20022;-50
2021/04/20 02:03:13;;;;;;;34.43;29.17;;;;;;;5.95;100.00;96015.66;1032316;28;20033;-49
2021/04/20 02:03:45;;;;;;;36.07;29.37;;;;;;;5.93;100.00;96024.66;1032107;28;20019;-49
2021/04/20 02:04:15;;;;;;;38.92;30.20;;;;;;;5.95;100.00;96020.91;1032117;28;20515;-50
2021/04/20 02:04:46;;;;;;;33.93;29.00;;;;;;;5.90;100.00;96025.78;1036427;28;20056;-50
2021/04/20 02:05:16;;;;;;;38.03;30.87;;;;;;;5.91;100.00;96016.97;1040200;28;20422;-50
2021/04/20 02:05:47;;;;;;;39.83;31.13;;;;;;;5.96;100.00;96019.91;1040072;28;20111;-50
2021/04/20 02:06:19;;;;;;;38.67;30.37;;;;;;;5.95;100.00;96010.44;1040403;28;20023;-50
2021/04/20 02:06:49;;;;;;;33.38;29.63;;;;;;;5.99;100.00;96019.59;1040486;28;20018;-49
2021/04/20 02:07:19;;;;;;;37.83;31.00;;;;;;;6.00;100.00;96023.03;1040343;28;20010;-49
2021/04/20 02:07:50;;;;;;;35.33;29.47;;;;;;;6.03;100.00;96014.84;1040131;28;20068;-49
2021/04/20 02:08:20;;;;;;;38.13;31.30;;;;;;;6.09;100.00;96018.56;1035991;28;20093;-49
2021/04/20 02:08:51;;;;;;;40.73;32.30;;;;;;;6.09;100.00;96021.19;1036139;28;20014;-49
2021/04/20 02:09:22;;;;;;;40.97;31.67;;;;;;;6.14;100.00;96022.31;1040225;28;20105;-53
2021/04/20 02:09:52;;;;;;;40.13;32.20;;;;;;;6.13;100.00;96018.06;1040097;28;20431;-49
2021/04/20 02:10:22;;;;;;;40.67;32.63;;;;;;;6.12;100.00;96019.06;1040102;28;20048;-52
2021/04/20 02:10:54;;;;;;;38.87;30.40;;;;;;;6.12;100.00;96021.69;1032173;28;20532;-48
2021/04/20 02:11:24;;;;;;;40.30;32.72;;;;;;;6.14;100.00;96011.06;1027978;28;20026;-48
2021/04/20 02:11:55;;;;;;;39.60;31.63;;;;;;;6.14;100.00;96017.09;1032178;28;20026;-50
2021/04/20 02:12:26;;;;;;;39.37;31.47;;;;;;;6.18;100.00;96023.63;1036419;28;20018;-50
2021/04/20 02:12:56;;;;;;;41.42;31.73;;;;;;;6.17;100.00;96015.94;1039926;28;20021;-48
2021/04/20 02:13:27;;;;;;;42.87;33.00;;;;;;;6.18;100.00;96013.16;1032131;28;20070;-48
2021/04/20 02:13:58;;;;;;;37.53;31.77;;;;;;;6.20;100.00;96015.59;1028029;28;20014;-49
2021/04/20 02:14:29;;;;;;;40.58;32.83;;;;;;;6.23;100.00;96017.88;1028410;28;20069;-50
2021/04/20 02:14:59;;;;;;;37.13;31.70;;;;;;;6.18;100.00;96020.16;1032143;28;20021;-48
2021/04/20 02:15:30;;;;;;;41.60;31.83;;;;;;;6.18;100.00;96018.38;1031737;28;20019;-48
2021/04/20 02:16:04;;;;;;;39.53;32.10;;;;;;;6.12;100.00;96015.63;1027927;28;20139;-49
2021/04/20 02:16:35;;;;;;;45.22;33.40;;;;;;;6.14;100.00;96014.47;1028617;28;20037;-49
2021/04/20 02:17:05;;;;;;;39.80;32.03;;;;;;;6.10;100.00;96015.78;1032539;28;20029;-48
2021/04/20 02:17:36;;;;;;;40.97;32.07;;;;;;;6.01;100.00;96020.25;1029012;28;20058;-49
2021/04/20 02:18:06;;;;;;;36.93;31.47;;;;;;;5.94;100.00;96019.25;1035895;28;20024;-49
2021/04/20 02:18:44;;;;;;;38.93;31.97;;;;;;;5.91;100.00;96016.19;1023943;29;20481;-49
2021/04/20 02:19:14;;;;;;;43.70;33.38;;;;;;;5.87;100.00;96015.69;1025149;28;20019;-49
2021/04/20 02:19:45;;;;;;;41.87;32.17;;;;;;;5.81;100.00;96019.78;1021135;29;20028;-48
2021/04/20 02:20:15;;;;;;;37.57;31.53;;;;;;;5.90;100.00;96014.53;1020925;29;20027;-50
2021/04/20 02:20:46;;;;;;;37.63;31.70;;;;;;;5.94;100.00;96021.88;1020094;29;20118;-48
2021/04/20 02:21:18;;;;;;;38.13;31.47;;;;;;;5.96;100.00;96019.91;1020232;29;20049;-49
2021/04/20 02:21:48;;;;;;;41.72;33.72;;;;;;;5.81;100.00;96017.16;1024362;28;20374;-49
2021/04/20 02:22:18;;;;;;;40.50;33.57;;;;;;;5.84;100.00;96021.25;1027903;28;20075;-49
2021/04/20 02:22:49;;;;;;;42.23;33.40;;;;;;;5.73;100.00;96014.59;1028354;28;20113;-51
2021/04/20 02:23:20;;;;;;;42.70;34.53;;;;;;;5.73;100.00;96013.78;1032556;28;20019;-49